Time;durP1;ratioP1;P1;durP2;ratioP2;P2;SDS_P1;SDS_P2;PMS_P1;PMS_P2;Temp;Humidity;BMP_temperature;BMP_pressure;BME280_temperature;BME280_humidity;BME280_pressure;Samples;Min_cycle;Max_cycle;Signal;HPM_P1;HPM_P2
2021/05/07 00:01:17;;;;;;;1.50;0.70;;;13.20;72.40;;;;;;2616445;52;21036;-68
2021/05/07 00:03:44;;;;;;;1.45;0.70;;;13.20;72.40;;;;;;2349925;53;21037;-67
2021/05/07 00:06:13;;;;;;;2.15;0.90;;;13.20;72.40;;;;;;2369176;53;20942;-68
2021/05/07 00:08:40;;;;;;;2.17;0.90;;;13.20;72.20;;;;;;2350008;53;21314;-66
2021/05/07 00:11:08;;;;;;;1.50;0.70;;;13.10;72.00;;;;;;2369521;53;20942;-68
2021/05/07 00:13:35;;;;;;;1.08;0.60;;;13.10;71.90;;;;;;2348656;53;20943;-67
2021/05/07 00:16:02;;;;;;;1.87;0.80;;;13.10;71.90;;;;;;2368276;53;20981;-69
2021/05/07 00:18:28;;;;;;;2.55;0.70;;;13.10;72.70;;;;;;2369382;53;21033;-67
2021/05/07 00:20:55;;;;;;;1.65;0.77;;;13.00;72.10;;;;;;2498376;52;20918;-68
2021/05/07 00:23:21;;;;;;;2.15;0.80;;;13.00;72.10;;;;;;2349080;53;20933;-69
2021/05/07 00:25:49;;;;;;;1.42;0.70;;;13.00;72.10;;;;;;2369112;53;21049;-69
2021/05/07 00:28:16;;;;;;;1.58;0.80;;;12.90;72.10;;;;;;2365846;53;21029;-66
2021/05/07 00:30:42;;;;;;;1.48;0.65;;;12.90;72.20;;;;;;2369345;53;21013;-68
2021/05/07 00:33:09;;;;;;;1.30;0.60;;;12.90;72.20;;;;;;2359221;53;21011;-68
2021/05/07 00:35:35;;;;;;;3.22;0.82;;;12.90;72.20;;;;;;2359281;53;20922;-69
2021/05/07 00:38:02;;;;;;;1.83;0.80;;;12.90;72.30;;;;;;2348786;53;20947;-67
2021/05/07 00:40:30;;;;;;;2.15;1.00;;;12.80;72.20;;;;;;2369372;53;20982;-70
2021/05/07 00:42:56;;;;;;;2.42;0.80;;;12.80;72.20;;;;;;2370047;53;20930;-66
2021/05/07 00:45:22;;;;;;;1.98;0.90;;;12.80;72.30;;;;;;2370212;53;20962;-68
2021/05/07 00:47:56;;;;;;;2.12;0.98;;;12.70;72.30;;;;;;2368521;53;20924;-67
2021/05/07 00:50:30;;;;;;;2.08;0.98;;;12.70;72.30;;;;;;2593060;52;21009;-67
2021/05/07 00:52:58;;;;;;;1.62;0.90;;;12.70;72.10;;;;;;2400926;53;21524;-69
2021/05/07 00:55:27;;;;;;;1.35;0.70;;;12.70;72.30;;;;;;2345158;54;20954;-68
2021/05/07 00:57:53;;;;;;;1.80;0.73;;;12.60;72.30;;;;;;2369823;53;20954;-67
2021/05/07 01:00:20;;;;;;;3.20;0.70;;;12.60;72.40;;;;;;2617797;52;21921;-69
2021/05/07 01:02:49;;;;;;;2.08;0.80;;;12.60;72.50;;;;;;2350250;53;20963;-68
2021/05/07 01:05:15;;;;;;;2.10;0.77;;;12.60;72.50;;;;;;2369710;53;21580;-66
2021/05/07 01:07:41;;;;;;;1.70;0.68;;;12.60;72.60;;;;;;2369532;53;20918;-67
2021/05/07 01:10:09;;;;;;;1.50;0.70;;;12.50;72.60;;;;;;2369812;53;20990;-66
2021/05/07 01:12:47;;;;;;;1.33;0.52;;;12.50;72.70;;;;;;2369731;53;21790;-66
2021/05/07 01:15:17;;;;;;;1.77;0.82;;;12.50;72.90;;;;;;2369608;53;21439;-66
2021/05/07 01:17:46;;;;;;;1.20;0.68;;;12.50;73.00;;;;;;2371110;53;20942;-72
2021/05/07 01:20:33;;;;;;;1.55;0.77;;;12.50;73.10;;;;;;2338968;54;20939;-67
2021/05/07 01:23:04;;;;;;;1.60;0.68;;;12.50;72.90;;;;;;2360312;53;21059;-66
2021/05/07 01:25:34;;;;;;;1.70;0.60;;;12.50;73.80;;;;;;2337571;53;20950;-66
2021/05/07 01:28:01;;;;;;;1.60;0.80;;;12.50;73.10;;;;;;2349033;54;20979;-67
2021/05/07 01:30:29;;;;;;;2.62;0.70;;;12.50;73.20;;;;;;2369864;53;20950;-69
2021/05/07 01:32:56;;;;;;;2.65;1.15;;;12.50;73.20;;;;;;2369642;53;20970;-68
2021/05/07 01:35:26;;;;;;;3.65;0.95;;;12.50;73.20;;;;;;2369907;53;20906;-69
2021/05/07 01:37:54;;;;;;;2.47;0.90;;;12.50;73.10;;;;;;2621301;52;20930;-66
2021/05/07 01:40:28;;;;;;;2.60;0.98;;;12.50;73.30;;;;;;2352729;53;20975;-67
2021/05/07 01:42:54;;;;;;;1.85;0.75;;;12.50;73.30;;;;;;2350612;54;20961;-68
2021/05/07 01:45:22;;;;;;;2.30;0.90;;;12.50;73.50;;;;;;2369014;53;20941;-68
2021/05/07 01:47:48;;;;;;;1.98;0.90;;;12.50;73.60;;;;;;2348849;54;20963;-68
2021/05/07 01:50:16;;;;;;;1.90;0.70;;;12.50;73.60;;;;;;2369357;53;20950;-66
2021/05/07 01:52:42;;;;;;;1.75;0.60;;;12.50;73.50;;;;;;2368999;53;20934;-68
2021/05/07 01:55:10;;;;;;;2.00;0.70;;;12.50;73.60;;;;;;2369357;53;21505;-67
2021/05/07 01:57:37;;;;;;;1.77;0.68;;;12.50;73.60;;;;;;2369066;53;20937;-66
2021/05/07 02:00:10;;;;;;;3.10;0.60;;;12.50;73.70;;;;;;2349435;54;21003;-69
2021/05/07 02:02:36;;;;;;;1.52;0.60;;;12.50;73.50;;;;;;2360708;53;20935;-67
2021/05/07 02:05:04;;;;;;;1.15;0.50;;;12.50;73.60;;;;;;2355964;53;20952;-66
2021/05/07 02:07:35;;;;;;;1.45;0.60;;;12.50;73.60;;;;;;2350447;54;20968;-67
2021/05/07 02:10:02;;;;;;;1.23;0.50;;;12.50;73.60;;;;;;2333145;54;20958;-69
2021/05/07 02:12:28;;;;;;;1.92;0.55;;;12.50;73.60;;;;;;2321548;54;20910;-66
2021/05/07 02:14:55;;;;;;;1.08;0.50;;;12.50;73.50;;;;;;2320215;54;21577;-67
2021/05/07 02:17:22;;;;;;;2.22;0.68;;;12.50;73.30;;;;;;2339622;54;21466;-66
2021/05/07 02:19:48;;;;;;;1.50;0.55;;;12.50;73.10;;;;;;2587301;52;20990;-68
2021/05/07 02:22:14;;;;;;;3.50;0.70;;;12.50;73.10;;;;;;2335573;54;21040;-66
2021/05/07 02:24:42;;;;;;;3.30;0.60;;;12.50;73.80;;;;;;2314581;54;20975;-69
2021/05/07 02:27:08;;;;;;;2.42;0.62;;;12.50;73.00;;;;;;2588338;52;21004;-67
2021/05/07 02:29:35;;;;;;;1.50;0.55;;;12.40;72.70;;;;;;2341778;54;20925;-69
2021/05/07 02:32:01;;;;;;;1.55;0.60;;;12.40;72.60;;;;;;2341418;54;20941;-68
2021/05/07 02:34:27;;;;;;;1.98;0.60;;;12.40;72.70;;;;;;2586599;53;20933;-70
2021/05/07 02:36:54;;;;;;;1.70;0.50;;;12.40;72.70;;;;;;2408885;52;20992;-68
2021/05/07 02:39:20;;;;;;;2.65;0.65;;;12.40;72.70;;;;;;2588180;53;21932;-66
2021/05/07 02:41:46;;;;;;;1.45;0.62;;;12.30;73.10;;;;;;2329091;54;20962;-67
2021/05/07 02:44:12;;;;;;;1.42;0.40;;;12.30;72.30;;;;;;2335455;54;21506;-70
2021/05/07 02:46:39;;;;;;;1.85;0.52;;;12.30;72.40;;;;;;2341301;54;20915;-68
2021/05/07 02:49:06;;;;;;;3.70;0.70;;;12.20;72.60;;;;;;2341492;53;20927;-69
2021/05/07 02:51:34;;;;;;;1.73;0.60;;;12.20;72.60;;;;;;2318734;53;21052;-70
2021/05/07 02:54:01;;;;;;;1.65;0.55;;;12.20;72.70;;;;;;2343896;54;20953;-69
2021/05/07 02:56:27;;;;;;;1.27;0.52;;;12.20;72.90;;;;;;2583283;53;20983;-67
2021/05/07 02:58:53;;;;;;;0.93;0.40;;;12.20;73.00;;;;;;2341158;53;21350;-67
2021/05/07 03:01:19;;;;;;;1.73;0.70;;;12.20;73.20;;;;;;2343628;53;20964;-69
2021/05/07 03:03:46;;;;;;;1.27;0.40;;;12.20;73.30;;;;;;2593381;52;21013;-67
2021/05/07 03:06:12;;;;;;;2.70;0.85;;;12.20;73.30;;;;;;2338869;53;21026;-67
2021/05/07 03:08:38;;;;;;;1.45;0.50;;;12.20;73.30;;;;;;2333000;54;21382;-69
2021/05/07 03:11:05;;;;;;;1.20;0.50;;;12.20;73.30;;;;;;2358377;53;21530;-67
2021/05/07 03:13:31;;;;;;;1.52;0.47;;;12.20;73.90;;;;;;2370011;53;21703;-70
2021/05/07 03:15:58;;;;;;;1.83;0.60;;;12.20;73.20;;;;;;2370209;53;21452;-68
2021/05/07 03:18:25;;;;;;;2.12;0.68;;;12.20;73.00;;;;;;2369359;53;20946;-70
2021/05/07 03:20:51;;;;;;;1.25;0.68;;;12.20;72.80;;;;;;2369156;53;20989;-66
2021/05/07 03:23:18;;;;;;;1.30;0.60;;;12.10;72.50;;;;;;2369356;53;21344;-69
2021/05/07 03:25:44;;;;;;;2.28;0.90;;;12.10;72.40;;;;;;2621713;52;20922;-67
2021/05/07 03:28:11;;;;;;;1.75;0.88;;;12.10;72.40;;;;;;2622094;52;21022;-68
2021/05/07 03:30:38;;;;;;;4.03;1.02;;;12.00;72.20;;;;;;2369318;53;20926;-68
2021/05/07 03:33:04;;;;;;;2.20;1.00;;;12.00;72.20;;;;;;2368958;53;20926;-70
2021/05/07 03:35:35;;;;;;;2.17;0.93;;;12.00;72.10;;;;;;2582070;52;21028;-69
2021/05/07 03:38:02;;;;;;;1.70;0.82;;;11.90;71.80;;;;;;2356287;53;21030;-67
2021/05/07 03:40:28;;;;;;;1.98;0.90;;;11.80;71.60;;;;;;2369439;53;20926;-70
2021/05/07 03:42:55;;;;;;;2.33;0.95;;;11.80;71.50;;;;;;2364408;53;21028;-68
2021/05/07 03:45:21;;;;;;;1.98;0.80;;;11.70;71.30;;;;;;2603474;52;21058;-69
2021/05/07 03:47:47;;;;;;;1.95;0.90;;;11.60;71.20;;;;;;2369020;53;20982;-69
2021/05/07 03:50:14;;;;;;;2.08;0.90;;;11.60;71.30;;;;;;2369293;53;20930;-70
2021/05/07 03:52:43;;;;;;;2.30;1.00;;;11.60;71.30;;;;;;2369053;53;21336;-65
2021/05/07 03:55:11;;;;;;;2.37;1.00;;;11.50;71.20;;;;;;2370744;53;20975;-68
2021/05/07 03:57:37;;;;;;;2.05;0.98;;;11.50;71.30;;;;;;2330190;54;21116;-68
2021/05/07 04:00:04;;;;;;;2.97;1.05;;;11.40;71.20;;;;;;2367713;53;20918;-70
2021/05/07 04:02:31;;;;;;;2.00;1.00;;;11.40;71.30;;;;;;2368736;53;20978;-66
2021/05/07 04:04:57;;;;;;;1.98;0.93;;;11.30;71.60;;;;;;2358512;53;21363;-68
2021/05/07 04:07:26;;;;;;;2.72;1.10;;;11.20;71.60;;;;;;2571158;53;20927;-66
2021/05/07 04:10:07;;;;;;;1.85;0.80;;;11.20;71.60;;;;;;2365354;53;20930;-68
2021/05/07 04:18:31;;;;;;;2.20;0.90;;;11.10;71.90;;;;;;2364361;53;21031;-67
2021/05/07 04:20:57;;;;;;;2.30;0.93;;;11.00;71.70;;;;;;2354879;53;21852;-69
2021/05/07 04:23:24;;;;;;;3.62;0.98;;;11.00;72.00;;;;;;2368646;53;21376;-69
2021/05/07 04:25:51;;;;;;;2.75;1.00;;;10.90;71.90;;;;;;2598897;52;21059;-68
2021/05/07 04:28:18;;;;;;;2.40;1.12;;;10.90;72.00;;;;;;2364270;54;21796;-66
2021/05/07 04:30:46;;;;;;;2.50;1.10;;;10.90;72.10;;;;;;2621369;52;21921;-67
2021/05/07 04:33:13;;;;;;;2.15;1.17;;;10.90;72.10;;;;;;2615833;52;21084;-69
2021/05/07 04:35:40;;;;;;;2.33;1.15;;;10.80;72.10;;;;;;2599601;52;21090;-67
2021/05/07 04:38:06;;;;;;;2.97;1.30;;;10.80;72.30;;;;;;2363206;53;21110;-69
2021/05/07 04:40:32;;;;;;;2.15;1.00;;;10.80;72.30;;;;;;2356048;54;20946;-69
2021/05/07 04:43:01;;;;;;;2.40;1.10;;;10.80;72.40;;;;;;2595990;52;20955;-71
2021/05/07 04:45:29;;;;;;;3.00;1.15;;;10.80;72.40;;;;;;2613441;52;20942;-69
2021/05/07 04:47:55;;;;;;;2.60;0.88;;;10.70;72.40;;;;;;2326275;54;21023;-70
2021/05/07 04:50:22;;;;;;;2.90;1.05;;;10.70;72.40;;;;;;2368532;53;21719;-68
2021/05/07 04:52:48;;;;;;;2.20;1.00;;;10.70;72.40;;;;;;2369057;53;21034;-72
2021/05/07 04:55:15;;;;;;;2.37;1.20;;;10.70;72.40;;;;;;2368494;53;20918;-69
2021/05/07 04:57:41;;;;;;;2.50;0.95;;;10.70;72.40;;;;;;2356092;53;20939;-71
2021/05/07 05:00:08;;;;;;;2.05;0.90;;;10.60;72.30;;;;;;2612029;52;21783;-70
2021/05/07 05:02:34;;;;;;;2.20;1.00;;;10.60;72.50;;;;;;2368653;53;20977;-70
2021/05/07 05:05:02;;;;;;;2.45;1.17;;;10.60;72.70;;;;;;2392163;52;20934;-70
2021/05/07 05:07:29;;;;;;;1.42;0.70;;;10.60;72.90;;;;;;2349705;54;20945;-69
2021/05/07 05:09:55;;;;;;;2.53;0.88;;;10.60;73.10;;;;;;2567454;52;20991;-70
2021/05/07 05:12:22;;;;;;;1.75;0.85;;;10.60;73.10;;;;;;2368810;53;20970;-68
2021/05/07 05:14:49;;;;;;;1.87;0.82;;;10.60;73.10;;;;;;2369192;53;21518;-68
2021/05/07 05:17:15;;;;;;;1.73;0.70;;;10.60;73.00;;;;;;2369250;53;20954;-68
2021/05/07 05:19:41;;;;;;;2.67;0.93;;;10.60;73.90;;;;;;2616500;52;21399;-69
2021/05/07 05:22:08;;;;;;;2.40;1.00;;;10.60;73.30;;;;;;2330856;54;20983;-67
2021/05/07 05:24:35;;;;;;;1.87;0.85;;;10.60;73.30;;;;;;2369933;53;20965;-68
2021/05/07 05:27:04;;;;;;;1.75;0.88;;;10.60;73.40;;;;;;2368923;53;21628;-68
2021/05/07 05:29:30;;;;;;;2.03;0.75;;;10.60;73.40;;;;;;2355172;53;21027;-68
2021/05/07 05:31:57;;;;;;;1.75;0.90;;;10.60;73.50;;;;;;2597964;52;20970;-69
2021/05/07 05:34:25;;;;;;;1.50;0.60;;;10.60;73.60;;;;;;2621463;52;21010;-67
2021/05/07 05:36:52;;;;;;;1.62;0.80;;;10.70;73.60;;;;;;2369082;53;20946;-69
2021/05/07 05:39:18;;;;;;;1.52;0.62;;;10.70;73.70;;;;;;2364147;53;21362;-69
2021/05/07 05:41:45;;;;;;;1.90;0.80;;;10.70;73.70;;;;;;2350697;54;20975;-67
2021/05/07 05:44:11;;;;;;;2.53;0.60;;;10.70;73.70;;;;;;2353141;53;21069;-67
2021/05/07 05:46:38;;;;;;;1.37;0.62;;;10.70;73.70;;;;;;2370861;53;20949;-69
2021/05/07 05:49:04;;;;;;;1.42;0.60;;;10.70;73.70;;;;;;2536253;52;21771;-67
2021/05/07 05:51:31;;;;;;;1.40;0.60;;;10.70;74.10;;;;;;2349459;54;20945;-67
2021/05/07 05:53:57;;;;;;;1.87;0.80;;;10.70;73.80;;;;;;2369210;53;20941;-66
2021/05/07 05:56:23;;;;;;;2.62;1.98;;;10.80;74.00;;;;;;2369190;53;21358;-66
2021/05/07 05:58:50;;;;;;;2.58;1.60;;;10.80;74.20;;;;;;2368083;53;20978;-71
2021/05/07 06:01:18;;;;;;;2.75;2.20;;;10.80;74.20;;;;;;2370556;53;21509;-68
2021/05/07 06:03:44;;;;;;;2.22;1.27;;;10.80;74.20;;;;;;2349042;53;21053;-69
2021/05/07 06:06:10;;;;;;;2.30;1.30;;;10.80;74.20;;;;;;2600839;52;20969;-67
2021/05/07 06:08:36;;;;;;;3.83;1.75;;;10.90;74.30;;;;;;2355718;53;21755;-68
2021/05/07 06:11:03;;;;;;;2.60;1.40;;;10.90;74.20;;;;;;2345207;53;21355;-67
2021/05/07 06:13:30;;;;;;;3.80;1.20;;;10.90;74.10;;;;;;2369467;53;20993;-69
2021/05/07 06:15:56;;;;;;;2.00;1.00;;;10.90;74.10;;;;;;2369801;53;21028;-68
2021/05/07 06:18:23;;;;;;;2.70;1.40;;;11.00;74.00;;;;;;2368989;53;20990;-66
2021/05/07 06:20:50;;;;;;;3.08;1.37;;;11.00;73.90;;;;;;2368668;53;20985;-66
2021/05/07 06:23:16;;;;;;;1.90;0.93;;;11.00;73.60;;;;;;2349116;54;20935;-68
2021/05/07 06:25:42;;;;;;;2.22;1.00;;;11.00;73.30;;;;;;2368982;53;20935;-69
2021/05/07 06:28:08;;;;;;;3.30;1.10;;;11.00;73.10;;;;;;2369558;53;20994;-69
2021/05/07 06:30:35;;;;;;;2.53;1.00;;;11.00;73.10;;;;;;2369314;53;20997;-69
2021/05/07 06:33:01;;;;;;;3.65;0.95;;;11.00;73.20;;;;;;2369388;53;20934;-68
2021/05/07 06:35:29;;;;;;;1.75;0.75;;;11.00;73.40;;;;;;2369238;53;21060;-68
2021/05/07 06:37:57;;;;;;;1.65;0.75;;;11.00;73.50;;;;;;2369362;53;21403;-67
2021/05/07 06:40:23;;;;;;;1.87;0.88;;;11.00;73.50;;;;;;2369423;53;20981;-67
2021/05/07 06:42:59;;;;;;;1.95;0.70;;;11.00;73.50;;;;;;2621892;52;20922;-67
2021/05/07 06:45:26;;;;;;;2.00;0.80;;;11.00;73.70;;;;;;2358879;53;20963;-69
2021/05/07 06:47:53;;;;;;;1.75;0.70;;;11.00;73.80;;;;;;2360081;53;20978;-67
2021/05/07 06:50:21;;;;;;;2.12;0.90;;;11.00;74.00;;;;;;2369180;53;20985;-67
2021/05/07 06:52:47;;;;;;;1.60;0.70;;;11.00;74.00;;;;;;2369410;53;21011;-67
2021/05/07 06:55:14;;;;;;;1.30;0.70;;;11.00;73.70;;;;;;2369148;53;21013;-66
2021/05/07 06:57:40;;;;;;;1.37;0.60;;;11.00;73.70;;;;;;2620801;52;20990;-66
2021/05/07 07:00:08;;;;;;;1.95;0.90;;;11.10;73.80;;;;;;2363132;53;21043;-67
2021/05/07 07:02:34;;;;;;;1.00;0.50;;;11.10;73.70;;;;;;2593302;52;21074;-70
2021/05/07 07:05:01;;;;;;;1.02;0.50;;;11.10;73.70;;;;;;2605525;52;20938;-69
2021/05/07 07:07:28;;;;;;;1.08;0.50;;;11.10;73.60;;;;;;2369866;53;20930;-67
2021/05/07 07:09:55;;;;;;;1.05;0.52;;;11.10;73.60;;;;;;2369494;53;20930;-66
2021/05/07 07:12:22;;;;;;;1.23;0.50;;;11.10;73.70;;;;;;2369446;53;20982;-65
2021/05/07 07:14:49;;;;;;;1.35;0.60;;;11.10;73.90;;;;;;2368947;53;21010;-68
2021/05/07 07:17:16;;;;;;;2.03;0.90;;;11.10;74.00;;;;;;2372763;53;20922;-68
2021/05/07 07:19:43;;;;;;;1.83;0.80;;;11.20;74.10;;;;;;2513892;53;20993;-68
2021/05/07 07:22:09;;;;;;;2.05;0.90;;;11.20;74.20;;;;;;2608435;52;20935;-69
2021/05/07 07:24:36;;;;;;;2.65;1.15;;;11.20;74.30;;;;;;2607233;52;20998;-69
2021/05/07 07:27:03;;;;;;;2.45;1.10;;;11.20;74.50;;;;;;2369391;53;20993;-68
2021/05/07 07:29:30;;;;;;;3.60;1.80;;;11.30;74.80;;;;;;2370567;53;20954;-68
2021/05/07 07:31:56;;;;;;;2.67;1.30;;;11.30;75.00;;;;;;2622679;52;21502;-67
2021/05/07 07:34:23;;;;;;;2.60;1.40;;;11.40;75.40;;;;;;2370361;53;20953;-69
2021/05/07 07:36:50;;;;;;;2.87;1.40;;;11.40;75.50;;;;;;2348081;53;20969;-68
2021/05/07 07:39:18;;;;;;;2.95;1.05;;;11.50;75.60;;;;;;2354841;54;21021;-68
2021/05/07 07:41:57;;;;;;;2.47;1.08;;;11.50;75.60;;;;;;2369625;53;20933;-66
2021/05/07 07:44:23;;;;;;;2.25;1.10;;;11.60;75.60;;;;;;2369362;53;20926;-68
2021/05/07 07:46:49;;;;;;;2.30;0.90;;;11.70;75.90;;;;;;2622181;52;21025;-69
2021/05/07 07:49:16;;;;;;;2.08;0.90;;;11.70;75.80;;;;;;2347862;53;1301662;-68
2021/05/07 07:51:42;;;;;;;2.08;0.90;;;11.80;75.80;;;;;;2368542;53;21051;-68
2021/05/07 07:54:11;;;;;;;2.37;0.88;;;11.90;76.20;;;;;;2351328;53;21421;-68
2021/05/07 07:56:40;;;;;;;2.25;0.95;;;12.00;76.70;;;;;;2621877;52;20906;-69
2021/05/07 07:59:06;;;;;;;2.42;0.90;;;12.10;77.40;;;;;;2369761;53;20938;-67
2021/05/07 08:01:33;;;;;;;1.95;0.80;;;12.20;77.80;;;;;;2349765;53;20930;-68
2021/05/07 08:04:02;;;;;;;2.45;0.90;;;12.30;77.80;;;;;;2354287;53;21094;-67
2021/05/07 08:06:29;;;;;;;2.58;1.05;;;12.50;77.70;;;;;;2368248;53;21000;-67
2021/05/07 08:08:56;;;;;;;2.10;1.00;;;12.60;77.50;;;;;;2348139;53;20982;-66
2021/05/07 08:11:22;;;;;;;2.42;0.95;;;12.70;77.10;;;;;;2368963;53;20926;-67
2021/05/07 08:13:48;;;;;;;4.12;1.40;;;12.70;76.60;;;;;;2518543;52;21066;-69
2021/05/07 08:16:15;;;;;;;3.92;1.73;;;12.80;75.80;;;;;;2361626;53;21679;-68
2021/05/07 08:18:43;;;;;;;3.53;1.70;;;12.90;75.50;;;;;;2345358;53;20949;-68
2021/05/07 08:21:09;;;;;;;2.90;1.50;;;12.90;75.60;;;;;;2365478;53;20997;-68
2021/05/07 08:23:36;;;;;;;2.85;1.23;;;13.00;75.40;;;;;;2353894;53;20998;-68
2021/05/07 08:26:02;;;;;;;4.37;1.77;;;13.00;75.20;;;;;;2359121;53;21449;-69
2021/05/07 08:28:28;;;;;;;4.30;1.90;;;13.10;74.90;;;;;;2344382;53;20983;-67
2021/05/07 08:30:55;;;;;;;3.83;2.25;;;13.10;74.40;;;;;;2364726;53;21510;-67
2021/05/07 08:33:24;;;;;;;3.62;2.03;;;13.10;74.60;;;;;;2367277;53;21051;-68
2021/05/07 08:35:50;;;;;;;3.37;1.90;;;13.10;75.10;;;;;;2351842;53;20986;-67
2021/05/07 08:38:17;;;;;;;3.25;2.15;;;13.20;75.50;;;;;;2615357;52;20974;-66
2021/05/07 08:40:43;;;;;;;3.22;1.98;;;13.30;75.90;;;;;;2515679;52;21549;-67
2021/05/07 08:43:11;;;;;;;3.60;2.10;;;13.30;75.40;;;;;;2369276;53;21017;-67
2021/05/07 08:45:37;;;;;;;5.43;2.30;;;13.40;76.10;;;;;;2437552;52;21013;-66
2021/05/07 08:48:08;;;;;;;4.32;2.40;;;13.50;76.50;;;;;;2369452;53;20934;-67
2021/05/07 08:50:34;;;;;;;6.10;2.55;;;13.60;76.20;;;;;;2612949;52;21055;-65
2021/05/07 08:53:01;;;;;;;4.28;2.50;;;13.70;75.70;;;;;;2354857;54;21018;-67
2021/05/07 08:55:28;;;;;;;3.75;2.17;;;13.80;74.80;;;;;;2369619;53;21419;-67
2021/05/07 08:57:56;;;;;;;3.08;1.87;;;13.80;73.60;;;;;;2370058;53;21877;-67
2021/05/07 09:00:23;;;;;;;4.22;2.33;;;13.80;72.70;;;;;;2349024;54;20951;-68
2021/05/07 09:02:50;;;;;;;3.42;2.00;;;13.80;71.60;;;;;;2369660;53;21518;-66
2021/05/07 09:05:29;;;;;;;3.95;2.33;;;13.70;70.70;;;;;;2581094;52;20962;-67
2021/05/07 09:07:56;;;;;;;4.40;2.05;;;13.60;69.60;;;;;;2369581;53;21553;-67
2021/05/07 09:10:30;;;;;;;4.05;2.22;;;13.50;70.80;;;;;;2362783;53;21678;-65
2021/05/07 09:12:57;;;;;;;5.22;2.65;;;13.50;71.70;;;;;;2568378;53;20926;-68
2021/05/07 09:15:36;;;;;;;4.50;2.92;;;13.60;74.30;;;;;;2358288;53;21006;-68
2021/05/07 09:18:02;;;;;;;4.78;2.90;;;13.70;75.60;;;;;;2368577;53;20933;-68
2021/05/07 09:20:41;;;;;;;4.87;2.40;;;13.80;75.70;;;;;;2372321;53;21700;-67
2021/05/07 09:23:13;;;;;;;3.05;1.95;;;13.90;74.10;;;;;;2595040;52;20926;-67
2021/05/07 09:25:40;;;;;;;;;;;14.00;73.60;;;;;;2573329;52;21529;-69
2021/05/07 09:28:08;;;;;;;4.12;1.95;;;14.00;71.10;;;;;;2348890;53;20096;-67
2021/05/07 09:30:34;;;;;;;3.83;2.10;;;14.00;71.60;;;;;;2349570;53;20992;-67
2021/05/07 09:33:22;;;;;;;3.80;2.42;;;14.00;72.40;;;;;;2367091;53;20967;-67
2021/05/07 09:35:49;;;;;;;4.10;2.25;;;14.00;73.00;;;;;;2356860;53;20914;-66
2021/05/07 09:38:18;;;;;;;3.37;2.20;;;14.10;75.00;;;;;;2370104;53;21603;-68
2021/05/07 09:40:45;;;;;;;7.35;3.87;;;14.20;76.10;;;;;;2621636;52;21877;-68
2021/05/07 09:43:17;;;;;;;5.05;3.08;;;14.40;77.30;;;;;;2369299;53;20930;-67
2021/05/07 09:45:45;;;;;;;;;;;14.60;76.90;;;;;;2625924;52;20938;-65
2021/05/07 09:48:28;;;;;;;4.20;2.37;;;14.80;72.90;;;;;;2369657;53;20077;-68
2021/05/07 09:51:02;;;;;;;6.57;2.58;;;14.90;73.50;;;;;;2369484;53;21015;-67
2021/05/07 09:53:43;;;;;;;3.37;2.10;;;15.10;73.60;;;;;;2428903;53;21616;-67
2021/05/07 09:56:14;;;;;;;5.27;2.27;;;15.10;72.10;;;;;;2353040;53;20950;-67
2021/05/07 09:58:43;;;;;;;3.72;2.03;;;15.10;70.60;;;;;;2368417;53;21533;-68
2021/05/07 10:01:09;;;;;;;4.45;2.40;;;15.10;70.40;;;;;;2369101;53;20949;-66
2021/05/07 10:03:37;;;;;;;3.50;1.98;;;15.00;69.90;;;;;;2349965;53;20960;-66
2021/05/07 10:06:05;;;;;;;3.65;2.08;;;14.90;70.10;;;;;;2621467;52;21455;-67
2021/05/07 10:08:43;;;;;;;4.97;2.45;;;14.90;70.20;;;;;;2367418;53;21070;-68
2021/05/07 10:11:13;;;;;;;5.60;2.33;;;14.80;68.70;;;;;;2355273;53;21106;-67
2021/05/07 10:13:40;;;;;;;3.28;2.08;;;14.80;69.60;;;;;;2370193;53;21462;-66
2021/05/07 10:16:07;;;;;;;4.00;1.87;;;14.70;69.30;;;;;;2571758;53;20943;-66
2021/05/07 10:18:35;;;;;;;3.67;2.05;;;14.60;69.30;;;;;;2365215;53;20930;-67
2021/05/07 10:21:07;;;;;;;4.60;2.35;;;14.60;71.00;;;;;;2354993;53;20954;-68
2021/05/07 10:23:34;;;;;;;4.25;2.10;;;14.70;72.20;;;;;;2616467;52;20927;-68
2021/05/07 10:26:09;;;;;;;4.18;2.22;;;14.70;72.80;;;;;;2369614;53;20918;-67
2021/05/07 10:28:52;;;;;;;4.22;2.10;;;14.80;71.90;;;;;;2621437;52;21385;-68
2021/05/07 10:31:19;;;;;;;3.80;2.12;;;14.90;69.90;;;;;;2363790;53;21843;-66
2021/05/07 10:34:06;;;;;;;3.60;2.00;;;14.80;70.20;;;;;;2336571;54;21780;-66
2021/05/07 10:36:46;;;;;;;3.65;2.00;;;14.80;68.40;;;;;;2592896;52;21436;-66
2021/05/07 10:39:19;;;;;;;3.85;2.28;;;14.80;70.00;;;;;;2368727;53;22100;-67
2021/05/07 10:41:46;;;;;;;4.95;2.25;;;14.80;71.20;;;;;;2391901;52;20941;-66
2021/05/07 10:44:14;;;;;;;3.42;1.70;;;14.80;72.30;;;;;;2356826;53;20930;-66
2021/05/07 10:46:41;;;;;;;4.68;1.80;;;15.00;73.70;;;;;;2619977;52;21085;-67
2021/05/07 10:49:07;;;;;;;4.50;1.70;;;15.10;74.80;;;;;;2369231;53;21061;-69
2021/05/07 10:51:34;;;;;;;3.83;2.00;;;15.30;74.60;;;;;;2369049;53;20950;-68
2021/05/07 10:54:14;;;;;;;3.67;1.80;;;15.50;73.20;;;;;;2363024;53;20939;-68
2021/05/07 10:56:42;;;;;;;2.75;1.40;;;15.60;70.00;;;;;;2339802;54;20927;-67
2021/05/07 10:59:18;;;;;;;4.50;1.52;;;15.60;70.30;;;;;;2352751;53;21612;-66
2021/05/07 11:01:57;;;;;;;3.47;1.77;;;15.60;67.80;;;;;;2337888;54;21053;-67
2021/05/07 11:04:23;;;;;;;3.22;1.80;;;15.60;67.60;;;;;;2342040;54;21960;-66
2021/05/07 11:07:02;;;;;;;2.95;1.62;;;15.60;69.20;;;;;;2354485;53;20969;-67
2021/05/07 11:09:28;;;;;;;3.28;1.62;;;15.60;68.70;;;;;;2369417;53;21447;-68
2021/05/07 11:12:02;;;;;;;3.25;1.70;;;15.60;70.70;;;;;;2366900;53;21006;-66
2021/05/07 11:14:29;;;;;;;3.62;1.73;;;15.70;70.70;;;;;;2370265;53;21911;-69
2021/05/07 11:16:55;;;;;;;3.53;1.62;;;15.80;72.30;;;;;;2467013;53;21915;-66
2021/05/07 11:19:28;;;;;;;4.15;1.83;;;15.90;71.10;;;;;;2370035;53;20926;-69
2021/05/07 11:21:56;;;;;;;4.85;2.05;;;15.90;69.40;;;;;;2370680;53;20982;-67
2021/05/07 11:24:27;;;;;;;4.47;1.80;;;15.90;69.20;;;;;;2364917;53;20991;-68
2021/05/07 11:26:54;;;;;;;2.97;1.60;;;15.80;68.10;;;;;;2354928;53;21383;-68
2021/05/07 11:29:33;;;;;;;2.58;1.40;;;15.70;68.70;;;;;;2437686;52;20987;-65
2021/05/07 11:32:21;;;;;;;4.62;1.55;;;15.70;67.20;;;;;;2361874;53;20954;-66
2021/05/07 11:34:58;;;;;;;3.45;1.90;;;15.70;68.60;;;;;;2359865;53;20992;-67
2021/05/07 11:37:25;;;;;;;3.28;2.00;;;15.80;71.90;;;;;;2358865;53;21021;-68
2021/05/07 11:40:08;;;;;;;2.80;1.70;;;15.90;73.60;;;;;;2397794;52;20930;-68
2021/05/07 11:42:38;;;;;;;3.30;1.80;;;16.10;72.00;;;;;;2369271;53;20934;-66
2021/05/07 11:45:26;;;;;;;4.47;1.80;;;16.20;73.40;;;;;;2369804;53;21002;-68
2021/05/07 11:47:52;;;;;;;3.92;2.40;;;16.40;71.00;;;;;;2368789;53;21005;-66
2021/05/07 11:50:21;;;;;;;4.85;2.30;;;16.50;72.80;;;;;;2369669;53;21002;-66
2021/05/07 11:52:49;;;;;;;4.62;2.30;;;16.60;72.40;;;;;;2360429;53;20905;-66
2021/05/07 11:55:32;;;;;;;4.93;2.42;;;16.70;73.80;;;;;;2368440;53;20950;-68
2021/05/07 11:58:07;;;;;;;4.32;2.33;;;16.90;71.70;;;;;;2364706;52;20940;-68
2021/05/07 12:00:35;;;;;;;3.08;2.12;;;17.10;72.20;;;;;;2368133;53;20938;-67
2021/05/07 12:03:16;;;;;;;4.50;2.22;;;17.20;73.00;;;;;;2621579;52;20906;-67
2021/05/07 12:05:44;;;;;;;3.85;1.90;;;17.40;72.10;;;;;;2364633;53;20948;-68
2021/05/07 12:08:11;;;;;;;2.83;1.50;;;17.50;73.10;;;;;;2358133;53;20973;-66
2021/05/07 12:10:38;;;;;;;3.47;2.00;;;17.60;72.20;;;;;;2357724;53;20923;-67
2021/05/07 12:13:05;;;;;;;3.67;2.05;;;17.70;72.10;;;;;;2362865;53;21032;-66
2021/05/07 12:15:52;;;;;;;2.83;1.62;;;17.70;71.40;;;;;;2369571;53;20946;-68
2021/05/07 12:18:20;;;;;;;3.10;1.90;;;17.80;67.40;;;;;;2403779;52;20946;-66
2021/05/07 12:20:49;;;;;;;3.22;1.90;;;17.70;70.60;;;;;;2369642;53;21794;-68
2021/05/07 12:23:18;;;;;;;4.30;1.90;;;17.80;71.70;;;;;;2369397;53;21065;-66
2021/05/07 12:25:45;;;;;;;4.12;2.55;;;17.90;73.10;;;;;;2369759;53;20942;-68
2021/05/07 12:28:23;;;;;;;3.25;2.05;;;18.10;73.70;;;;;;2499826;52;21431;-66
2021/05/07 12:30:50;;;;;;;4.60;1.92;;;18.20;70.70;;;;;;2369606;53;20938;-70
2021/05/07 12:33:32;;;;;;;4.78;2.50;;;18.30;72.10;;;;;;2463237;52;20973;-67
2021/05/07 12:35:59;;;;;;;4.20;2.17;;;18.40;70.20;;;;;;2371538;53;20934;-66
2021/05/07 12:38:35;;;;;;;3.37;2.20;;;18.40;70.80;;;;;;2332785;54;20951;-66
2021/05/07 12:41:07;;;;;;;3.87;2.30;;;18.40;69.30;;;;;;2331291;53;21033;-68
2021/05/07 12:43:35;;;;;;;3.90;2.22;;;18.40;71.10;;;;;;2351943;53;21025;-67
2021/05/07 12:46:01;;;;;;;4.78;2.70;;;18.40;70.20;;;;;;2340475;53;20984;-66
2021/05/07 12:48:56;;;;;;;4.50;2.10;;;18.50;69.30;;;;;;2601950;52;20950;-68
2021/05/07 12:51:23;;;;;;;3.62;2.10;;;18.40;70.00;;;;;;2366296;53;21035;-68
2021/05/07 12:53:50;;;;;;;3.60;1.77;;;18.40;70.50;;;;;;2338441;54;20924;-69
2021/05/07 12:56:16;;;;;;;4.12;2.03;;;18.50;71.40;;;;;;2493673;52;21018;-69
2021/05/07 12:58:42;;;;;;;4.75;2.30;;;18.50;71.60;;;;;;2356815;53;20919;-70
2021/05/07 13:01:09;;;;;;;3.75;2.15;;;18.60;70.80;;;;;;2362843;53;20978;-66